createdAt,value
2023-02-22T00:00:43.508Z,9.46
2023-02-22T00:01:51.330Z,9.46
2023-02-22T00:03:00.133Z,9.44
2023-02-22T00:04:04.912Z,9.42
2023-02-22T00:05:07.501Z,9.49
2023-02-22T00:06:17.347Z,9.55
2023-02-22T00:07:21.545Z,9.46
2023-02-22T00:08:30.619Z,9.57
2023-02-22T00:09:33.190Z,9.50
2023-02-22T00:10:38.596Z,9.56
2023-02-22T00:11:46.672Z,9.53
2023-02-22T00:12:49.525Z,9.44
2023-02-22T00:13:52.046Z,9.45
2023-02-22T00:14:54.680Z,9.42
2023-02-22T00:15:58.299Z,9.41
2023-02-22T00:17:00.935Z,9.41
2023-02-22T00:18:05.147Z,9.42
2023-02-22T00:19:07.884Z,9.44
2023-02-22T00:20:14.498Z,9.43
2023-02-22T00:21:18.326Z,9.41
2023-02-22T00:22:21.330Z,9.40
2023-02-22T00:23:25.534Z,9.47
2023-02-22T00:24:29.646Z,9.46
2023-02-22T00:25:32.617Z,9.44
2023-02-22T00:26:35.646Z,9.45
2023-02-22T00:27:38.742Z,9.43
2023-02-22T00:28:42.699Z,9.45
2023-02-22T00:29:47.269Z,9.44
2023-02-22T00:30:51.344Z,9.43
2023-02-22T00:31:57.303Z,9.38
2023-02-22T00:33:01.193Z,9.37
2023-02-22T00:34:04.309Z,9.34
2023-02-22T00:35:08.631Z,9.35
2023-02-22T00:36:14.164Z,9.38
2023-02-22T00:37:17.272Z,9.36
2023-02-22T00:38:20.552Z,9.35
2023-02-22T00:39:23.637Z,9.40
2023-02-22T00:40:32.160Z,9.49
2023-02-22T00:41:35.320Z,9.40
2023-02-22T00:42:39.241Z,9.39
2023-02-22T00:43:42.485Z,9.38
2023-02-22T00:44:45.969Z,9.49
2023-02-22T00:45:49.601Z,9.44
2023-02-22T00:46:54.013Z,9.43
2023-02-22T00:47:59.172Z,9.47
2023-02-22T00:49:02.416Z,9.45
2023-02-22T00:50:06.140Z,9.46
2023-02-22T00:51:09.378Z,9.47
2023-02-22T00:52:12.864Z,9.48
2023-02-22T00:53:16.820Z,9.48
2023-02-22T00:54:21.140Z,9.50
2023-02-22T00:55:27.627Z,9.50
2023-02-22T00:56:31.105Z,9.41
2023-02-22T00:57:35.547Z,9.42
2023-02-22T00:58:38.672Z,9.40
2023-02-22T00:59:41.930Z,9.41
2023-02-22T01:00:45.397Z,9.36
2023-02-22T01:01:50.385Z,9.40
2023-02-22T01:02:56.194Z,9.36
2023-02-22T01:03:59.568Z,9.35
2023-02-22T01:05:02.679Z,9.30
2023-02-22T01:06:06.041Z,9.32
2023-02-22T01:07:09.162Z,9.30
2023-02-22T01:08:13.640Z,9.31
2023-02-22T01:09:16.141Z,9.28
2023-02-22T01:10:21.410Z,9.30
2023-02-22T01:11:24.048Z,9.22
2023-02-22T01:12:27.650Z,9.23
2023-02-22T01:13:30.290Z,9.24
2023-02-22T01:14:35.142Z,9.20
2023-02-22T01:15:40.186Z,9.22
2023-02-22T01:16:44.578Z,9.24
2023-02-22T01:17:48.298Z,9.22
2023-02-22T01:18:51.604Z,9.25
2023-02-22T01:19:54.901Z,9.23
2023-02-22T01:20:57.425Z,9.23
2023-02-22T01:22:00.082Z,9.23
2023-02-22T01:23:04.069Z,9.31
2023-02-22T01:24:07.274Z,9.29
2023-02-22T01:25:11.876Z,9.34
2023-02-22T01:26:14.390Z,9.35
2023-02-22T01:27:18.241Z,9.47
2023-02-22T01:28:22.691Z,9.36
2023-02-22T01:29:25.913Z,9.35
2023-02-22T01:30:33.037Z,9.40
2023-02-22T01:31:35.988Z,9.36
2023-02-22T01:32:42.472Z,9.37
2023-02-22T01:33:45.245Z,9.28
2023-02-22T01:34:47.756Z,9.26
2023-02-22T01:35:51.361Z,9.25
2023-02-22T01:36:53.971Z,9.28
2023-02-22T01:37:58.274Z,9.33
2023-02-22T01:39:01.055Z,9.27
2023-02-22T01:40:07.415Z,9.28
2023-02-22T01:41:10.079Z,9.27
2023-02-22T01:42:12.719Z,9.21
2023-02-22T01:43:35.400Z,9.31
2023-02-22T01:44:40.199Z,9.24
2023-02-22T01:45:47.948Z,9.24
2023-02-22T01:46:50.652Z,9.31
2023-02-22T01:47:53.884Z,9.30
2023-02-22T01:49:01.804Z,9.26
2023-02-22T01:50:04.440Z,9.24
2023-02-22T01:51:14.946Z,9.25
2023-02-22T01:52:21.122Z,9.23
2023-02-22T01:53:37.572Z,9.20
2023-02-22T01:54:46.447Z,9.18
2023-02-22T01:55:50.805Z,9.16
2023-02-22T01:57:09.014Z,9.16
2023-02-22T01:58:12.971Z,9.14
2023-02-22T01:59:15.607Z,9.13
2023-02-22T02:00:21.501Z,9.18
2023-02-22T02:01:26.290Z,9.20
2023-02-22T02:02:29.060Z,9.16
2023-02-22T02:03:35.806Z,9.19
2023-02-22T02:04:38.428Z,9.17
2023-02-22T02:05:41.921Z,9.18
2023-02-22T02:06:45.980Z,9.17
2023-02-22T02:07:49.450Z,9.16
2023-02-22T02:09:20.553Z,9.24
2023-02-22T02:10:24.506Z,9.12
2023-02-22T02:11:27.633Z,9.16
2023-02-22T02:12:36.397Z,9.13
2023-02-22T02:13:39.029Z,9.08
2023-02-22T02:14:42.746Z,9.05
2023-02-22T02:15:45.998Z,9.15
2023-02-22T02:16:53.369Z,9.20
2023-02-22T02:18:00.874Z,9.21
2023-02-22T02:19:06.159Z,9.15
2023-02-22T02:20:17.555Z,9.15
2023-02-22T02:21:34.850Z,9.20
2023-02-22T02:23:01.119Z,9.22
2023-02-22T02:24:18.774Z,9.23
2023-02-22T02:25:40.016Z,9.26
2023-02-22T02:27:01.487Z,9.20
2023-02-22T02:28:22.851Z,9.18
2023-02-22T02:29:43.732Z,9.30
2023-02-22T02:31:13.257Z,9.20
2023-02-22T02:32:22.571Z,9.18
2023-02-22T02:33:34.623Z,9.10
2023-02-22T02:34:55.983Z,9.16
2023-02-22T02:36:09.423Z,9.16
2023-02-22T02:37:18.909Z,9.14
2023-02-22T02:38:55.937Z,9.14
2023-02-22T02:40:22.055Z,9.12
2023-02-22T02:41:38.713Z,9.06
2023-02-22T02:43:26.837Z,9.10
2023-02-22T02:44:52.404Z,9.01
2023-02-22T02:46:04.887Z,9.14
2023-02-22T02:47:20.072Z,9.15
2023-02-22T02:48:28.645Z,9.14
2023-02-22T02:49:40.286Z,9.08
2023-02-22T02:50:49.658Z,9.06
2023-02-22T02:51:56.371Z,9.05
2023-02-22T02:53:03.812Z,9.03
2023-02-22T02:54:08.373Z,8.99
2023-02-22T02:55:13.656Z,9.06
2023-02-22T02:56:18.338Z,8.97
2023-02-22T02:57:25.299Z,8.94
2023-02-22T02:58:28.780Z,8.90
2023-02-22T02:59:35.743Z,8.91
2023-02-22T03:00:42.825Z,8.93
2023-02-22T03:02:06.585Z,8.93
2023-02-22T03:03:45.950Z,8.94
2023-02-22T03:05:07.687Z,8.93
2023-02-22T03:06:29.403Z,8.94
2023-02-22T03:07:39.762Z,8.98
2023-02-22T03:09:02.651Z,8.93
2023-02-22T03:10:13.437Z,8.90
2023-02-22T03:11:21.605Z,9.03
2023-02-22T03:12:48.126Z,9.08
2023-02-22T03:14:07.447Z,9.09
2023-02-22T03:15:10.021Z,8.97
2023-02-22T03:16:43.792Z,9.05
2023-02-22T03:18:01.455Z,9.05
2023-02-22T03:19:07.097Z,8.95
2023-02-22T03:20:39.263Z,9.03
2023-02-22T03:22:14.227Z,9.07
2023-02-22T03:23:25.585Z,9.07
2023-02-22T03:24:43.148Z,9.07
2023-02-22T03:25:53.953Z,9.08
2023-02-22T03:27:09.487Z,9.11
2023-02-22T03:28:18.561Z,9.13
2023-02-22T03:29:26.356Z,9.08
2023-02-22T03:30:38.032Z,9.08
2023-02-22T03:31:51.347Z,9.09
2023-02-22T03:33:02.476Z,9.07
2023-02-22T03:34:11.805Z,9.05
2023-02-22T03:35:37.644Z,9.06
2023-02-22T03:36:46.877Z,9.02
2023-02-22T03:37:58.619Z,9.03
2023-02-22T03:39:04.427Z,8.98
2023-02-22T03:40:16.529Z,8.99
2023-02-22T03:41:27.082Z,8.96
2023-02-22T03:42:35.217Z,8.98
2023-02-22T03:43:46.294Z,8.96
2023-02-22T03:44:54.447Z,8.99
2023-02-22T03:45:58.882Z,8.98
2023-02-22T03:47:06.813Z,8.97
2023-02-22T03:48:54.451Z,9.06
2023-02-22T03:50:16.652Z,9.05
2023-02-22T03:51:19.604Z,8.96
2023-02-22T03:52:26.858Z,8.99
2023-02-22T03:53:30.690Z,8.94
2023-02-22T03:54:35.180Z,8.95
2023-02-22T03:55:38.373Z,8.91
2023-02-22T03:56:48.968Z,8.98
2023-02-22T03:57:58.658Z,8.97
2023-02-22T03:59:07.061Z,8.97
2023-02-22T04:00:12.464Z,8.96
2023-02-22T04:01:20.137Z,8.90
2023-02-22T04:02:23.859Z,8.91
2023-02-22T04:03:26.974Z,8.97
2023-02-22T04:04:30.636Z,8.97
2023-02-22T04:05:34.427Z,8.98
2023-02-22T04:06:37.900Z,8.95
2023-02-22T04:07:41.741Z,8.99
2023-02-22T04:08:44.619Z,8.94
2023-02-22T04:09:47.271Z,8.87
2023-02-22T04:10:51.825Z,8.86
2023-02-22T04:11:57.233Z,8.94
2023-02-22T04:12:59.876Z,8.88
2023-02-22T04:14:02.511Z,8.99
2023-02-22T04:15:08.029Z,9.00
2023-02-22T04:16:10.948Z,8.95
2023-02-22T04:17:13.572Z,8.96
2023-02-22T04:18:16.075Z,8.94
2023-02-22T04:19:20.757Z,8.91
2023-02-22T04:20:25.783Z,8.91
2023-02-22T04:21:34.320Z,8.94
2023-02-22T04:22:38.041Z,8.88
2023-02-22T04:23:40.571Z,8.86
2023-02-22T04:24:43.929Z,8.92
2023-02-22T04:25:46.810Z,8.93
2023-02-22T04:26:52.450Z,8.92
2023-02-22T04:27:56.772Z,8.89
2023-02-22T04:29:13.335Z,8.88
2023-02-22T04:30:21.073Z,8.92
2023-02-22T04:31:24.784Z,8.86
2023-02-22T04:32:29.904Z,8.95
2023-02-22T04:33:32.902Z,8.96
2023-02-22T04:34:36.022Z,8.93
2023-02-22T04:35:39.505Z,8.89
2023-02-22T04:36:45.631Z,8.91
2023-02-22T04:37:48.866Z,8.86
2023-02-22T04:38:52.947Z,8.84
2023-02-22T04:39:56.125Z,8.90
2023-02-22T04:40:59.207Z,8.93
2023-02-22T04:42:03.397Z,8.84
2023-02-22T04:43:06.521Z,8.94
2023-02-22T04:44:09.635Z,8.93
2023-02-22T04:45:13.721Z,8.91
2023-02-22T04:46:17.332Z,8.90
2023-02-22T04:47:20.586Z,8.87
2023-02-22T04:48:23.804Z,8.92
2023-02-22T04:49:27.526Z,8.87
2023-02-22T04:50:31.846Z,8.87
2023-02-22T04:51:36.287Z,8.88
2023-02-22T04:52:42.894Z,8.90
2023-02-22T04:53:47.099Z,8.90
2023-02-22T04:54:51.202Z,8.87
2023-02-22T04:55:54.896Z,8.95
2023-02-22T04:56:58.137Z,8.84
2023-02-22T04:58:01.622Z,8.90
2023-02-22T04:59:04.740Z,8.84
2023-02-22T05:00:10.741Z,8.88
2023-02-22T05:01:15.831Z,8.85
2023-02-22T05:02:20.365Z,8.84
2023-02-22T05:03:23.706Z,8.83
2023-02-22T05:04:27.217Z,8.84
2023-02-22T05:05:30.313Z,8.81
2023-02-22T05:06:33.674Z,8.81
2023-02-22T05:07:36.799Z,8.79
2023-02-22T05:08:40.049Z,8.80
2023-02-22T05:09:43.158Z,8.77
2023-02-22T05:10:46.528Z,8.80
2023-02-22T05:11:49.760Z,8.75
2023-02-22T05:12:52.524Z,8.79
2023-02-22T05:13:55.404Z,8.75
2023-02-22T05:14:58.166Z,8.75
2023-02-22T05:16:00.883Z,8.85
2023-02-22T05:17:04.252Z,8.84
2023-02-22T05:18:07.103Z,8.86
2023-02-22T05:19:09.696Z,8.84
2023-02-22T05:20:23.018Z,9.00
2023-02-22T05:21:25.704Z,8.93
2023-02-22T05:22:28.298Z,8.98
2023-02-22T05:23:31.179Z,8.92
2023-02-22T05:24:34.183Z,8.79
2023-02-22T05:25:36.825Z,8.82
2023-02-22T05:26:40.588Z,8.83
2023-02-22T05:27:43.186Z,8.82
2023-02-22T05:28:45.949Z,8.82
2023-02-22T05:29:48.953Z,8.72
2023-02-22T05:30:51.756Z,8.78
2023-02-22T05:31:54.517Z,8.75
2023-02-22T05:32:57.278Z,8.70
2023-02-22T05:33:59.916Z,8.74
2023-02-22T05:35:02.823Z,8.69
2023-02-22T05:36:07.873Z,8.61
2023-02-22T05:37:10.563Z,8.64
2023-02-22T05:38:15.253Z,8.76
2023-02-22T05:39:17.932Z,8.73
2023-02-22T05:40:22.808Z,8.76
2023-02-22T05:41:25.479Z,8.75
2023-02-22T05:42:28.124Z,8.74
2023-02-22T05:43:30.733Z,8.77
2023-02-22T05:44:33.409Z,8.77
2023-02-22T05:45:36.404Z,8.69
2023-02-22T05:46:39.147Z,8.75
2023-02-22T05:47:41.910Z,8.79
2023-02-22T05:48:44.573Z,8.79
2023-02-22T05:49:47.328Z,8.80
2023-02-22T05:50:50.240Z,8.69
2023-02-22T05:51:52.970Z,8.70
2023-02-22T05:52:55.854Z,8.67
2023-02-22T05:53:58.609Z,8.76
2023-02-22T05:55:01.394Z,8.77
2023-02-22T05:56:04.521Z,8.83
2023-02-22T05:57:07.975Z,8.83
2023-02-22T05:58:10.642Z,8.74
2023-02-22T05:59:13.378Z,8.72
2023-02-22T06:00:19.489Z,8.80
2023-02-22T06:01:22.269Z,8.77
2023-02-22T06:02:24.905Z,8.79
2023-02-22T06:03:27.535Z,8.72
2023-02-22T06:04:30.654Z,8.81
2023-02-22T06:05:33.469Z,8.71
2023-02-22T06:06:36.654Z,8.81
2023-02-22T06:07:39.303Z,8.76
2023-02-22T06:08:41.939Z,8.78
2023-02-22T06:09:44.455Z,8.73
2023-02-22T06:10:46.977Z,8.72
2023-02-22T06:11:49.499Z,8.83
2023-02-22T06:12:52.592Z,8.80
2023-02-22T06:13:55.259Z,8.76
2023-02-22T06:14:57.784Z,8.79
2023-02-22T06:16:00.315Z,8.84
2023-02-22T06:17:03.310Z,8.80
2023-02-22T06:18:05.951Z,8.87
2023-02-22T06:19:08.591Z,8.82
2023-02-22T06:20:14.710Z,8.92
2023-02-22T06:21:18.110Z,8.82
2023-02-22T06:22:20.844Z,8.86
2023-02-22T06:23:23.715Z,8.81
2023-02-22T06:24:26.716Z,8.82
2023-02-22T06:25:34.052Z,8.83
2023-02-22T06:26:36.686Z,8.78
2023-02-22T06:27:39.444Z,8.73
2023-02-22T06:28:42.084Z,8.72
2023-02-22T06:29:47.018Z,8.77
2023-02-22T06:30:49.794Z,8.70
2023-02-22T06:31:52.892Z,8.69
2023-02-22T06:32:55.782Z,8.71
2023-02-22T06:33:58.658Z,8.75
2023-02-22T06:35:01.688Z,8.75
2023-02-22T06:36:05.615Z,8.71
2023-02-22T06:37:08.857Z,8.74
2023-02-22T06:38:11.980Z,8.70
2023-02-22T06:39:16.062Z,8.76
2023-02-22T06:40:19.197Z,8.77
2023-02-22T06:41:22.304Z,8.71
2023-02-22T06:42:25.920Z,8.72
2023-02-22T06:43:29.028Z,8.69
2023-02-22T06:44:32.149Z,8.70
2023-02-22T06:45:35.401Z,8.68
2023-02-22T06:46:38.996Z,8.80
2023-02-22T06:47:42.354Z,8.66
2023-02-22T06:48:45.485Z,8.59
2023-02-22T06:49:54.358Z,8.76
2023-02-22T06:50:57.486Z,8.63
2023-02-22T06:52:00.719Z,8.66
2023-02-22T06:53:04.326Z,8.66
2023-02-22T06:54:07.693Z,8.67
2023-02-22T06:55:10.808Z,8.69
2023-02-22T06:56:13.933Z,8.71
2023-02-22T06:57:17.782Z,8.66
2023-02-22T06:58:20.901Z,8.58
2023-02-22T06:59:24.132Z,8.56
2023-02-22T07:00:29.315Z,8.61
2023-02-22T07:01:32.429Z,8.69
2023-02-22T07:02:35.783Z,8.71
2023-02-22T07:03:39.177Z,8.64
2023-02-22T07:04:43.644Z,8.60
2023-02-22T07:05:46.829Z,8.66
2023-02-22T07:06:50.788Z,8.74
2023-02-22T07:08:02.194Z,8.81
2023-02-22T07:09:05.312Z,8.71
2023-02-22T07:10:16.121Z,8.81
2023-02-22T07:11:19.322Z,8.78
2023-02-22T07:12:22.239Z,8.78
2023-02-22T07:13:25.370Z,8.76
2023-02-22T07:14:28.251Z,8.72
2023-02-22T07:15:34.726Z,8.74
2023-02-22T07:16:37.635Z,8.71
2023-02-22T07:17:41.383Z,8.72
2023-02-22T07:18:44.091Z,8.77
2023-02-22T07:19:46.611Z,8.68
2023-02-22T07:20:49.223Z,8.72
2023-02-22T07:21:58.254Z,8.77
2023-02-22T07:23:01.472Z,8.80
2023-02-22T07:24:05.528Z,8.77
2023-02-22T07:25:10.312Z,8.79
2023-02-22T07:26:14.277Z,8.78
2023-02-22T07:27:17.826Z,8.66
2023-02-22T07:28:20.391Z,8.81
2023-02-22T07:29:23.632Z,8.73
2023-02-22T07:30:31.841Z,8.86
2023-02-22T07:31:38.394Z,8.83
2023-02-22T07:32:42.940Z,8.89
2023-02-22T07:33:48.955Z,8.88
2023-02-22T07:34:51.596Z,8.79
2023-02-22T07:35:54.238Z,8.89
2023-02-22T07:36:56.766Z,9.01
2023-02-22T07:37:59.517Z,8.93
2023-02-22T07:39:02.066Z,8.86
2023-02-22T07:40:04.924Z,8.87
2023-02-22T07:41:07.766Z,8.85
2023-02-22T07:42:10.440Z,8.75
2023-02-22T07:43:20.401Z,8.85
2023-02-22T07:44:22.923Z,8.91
2023-02-22T07:45:33.483Z,8.99
2023-02-22T07:46:36.003Z,8.94
2023-02-22T07:47:38.646Z,8.88
2023-02-22T07:48:41.764Z,8.93
2023-02-22T07:49:44.383Z,8.94
2023-02-22T07:50:47.386Z,8.99
2023-02-22T07:51:50.067Z,9.02
2023-02-22T07:52:55.704Z,8.97
2023-02-22T07:53:58.210Z,9.06
2023-02-22T07:55:00.849Z,9.04
2023-02-22T07:56:05.789Z,9.10
2023-02-22T07:57:08.534Z,9.16
2023-02-22T07:58:15.262Z,9.24
2023-02-22T07:59:18.022Z,9.26
2023-02-22T08:00:30.374Z,9.44
2023-02-22T08:01:32.894Z,9.33
2023-02-22T08:02:35.616Z,9.49
2023-02-22T08:03:38.411Z,9.55
2023-02-22T08:04:40.937Z,9.50
2023-02-22T08:05:47.063Z,9.60
2023-02-22T08:06:50.306Z,9.45
2023-02-22T08:07:52.825Z,9.42
2023-02-22T08:08:55.343Z,9.40
2023-02-22T08:09:57.857Z,9.47
2023-02-22T08:11:00.385Z,9.50
2023-02-22T08:12:02.903Z,9.45
2023-02-22T08:13:06.056Z,9.46
2023-02-22T08:14:08.659Z,9.52
2023-02-22T08:15:18.272Z,9.66
2023-02-22T08:16:20.789Z,9.61
2023-02-22T08:17:23.426Z,9.66
2023-02-22T08:18:26.306Z,9.65
2023-02-22T08:19:28.830Z,9.74
2023-02-22T08:20:31.711Z,9.79
2023-02-22T08:21:34.359Z,9.90
2023-02-22T08:22:36.879Z,9.95
2023-02-22T08:23:39.396Z,10.05
2023-02-22T08:24:41.923Z,10.20
2023-02-22T08:25:44.687Z,10.10
2023-02-22T08:26:47.563Z,10.14
2023-02-22T08:27:50.325Z,10.07
2023-02-22T08:28:52.970Z,10.27
2023-02-22T08:29:56.693Z,10.23
2023-02-22T08:30:59.835Z,10.18
2023-02-22T08:32:03.495Z,10.23
2023-02-22T08:33:06.846Z,10.40
2023-02-22T08:34:09.775Z,10.33
2023-02-22T08:35:14.098Z,10.41
2023-02-22T08:36:18.782Z,10.49
2023-02-22T08:37:21.661Z,10.46
2023-02-22T08:38:28.160Z,10.46
2023-02-22T08:39:31.264Z,10.38
2023-02-22T08:40:37.282Z,10.40
2023-02-22T08:41:40.395Z,10.29
2023-02-22T08:42:44.358Z,10.34
2023-02-22T08:43:47.471Z,10.38
2023-02-22T08:44:50.599Z,10.29
2023-02-22T08:45:56.184Z,10.44
2023-02-22T08:47:00.434Z,10.38
2023-02-22T08:48:04.161Z,10.31
2023-02-22T08:49:09.196Z,10.25
2023-02-22T08:50:19.657Z,10.31
2023-02-22T08:51:22.886Z,10.42
2023-02-22T08:52:26.000Z,10.43
2023-02-22T08:53:29.256Z,10.43
2023-02-22T08:54:32.726Z,10.46
2023-02-22T08:55:38.006Z,10.57
2023-02-22T08:56:41.132Z,10.70
2023-02-22T08:57:44.248Z,10.61
2023-02-22T08:58:47.375Z,10.67
2023-02-22T08:59:50.610Z,10.71
2023-02-22T09:00:54.456Z,10.53
2023-02-22T09:01:57.581Z,10.69
2023-02-22T09:03:02.743Z,10.63
2023-02-22T09:04:06.097Z,10.72
2023-02-22T09:05:09.458Z,10.55
2023-02-22T09:06:12.833Z,10.50
2023-02-22T09:07:17.866Z,10.60
2023-02-22T09:08:21.826Z,10.57
2023-02-22T09:09:25.545Z,10.61
2023-02-22T09:10:31.430Z,10.62
2023-02-22T09:11:34.673Z,10.58
2023-02-22T09:12:38.030Z,10.51
2023-02-22T09:13:41.031Z,10.63
2023-02-22T09:14:44.038Z,10.60
2023-02-22T09:15:47.402Z,10.52
2023-02-22T09:16:50.652Z,10.46
2023-02-22T09:17:54.363Z,10.40
2023-02-22T09:18:57.239Z,10.16
2023-02-22T09:20:00.182Z,10.20
2023-02-22T09:21:03.971Z,10.29
2023-02-22T09:22:06.741Z,10.42
2023-02-22T09:23:10.020Z,10.32
2023-02-22T09:24:12.785Z,10.45
2023-02-22T09:25:17.509Z,10.57
2023-02-22T09:26:20.706Z,10.63
2023-02-22T09:27:23.466Z,10.49
2023-02-22T09:28:29.142Z,10.56
2023-02-22T09:29:31.942Z,10.57
2023-02-22T09:30:36.547Z,10.64
2023-02-22T09:31:41.048Z,10.68
2023-02-22T09:32:43.853Z,10.70
2023-02-22T09:33:47.494Z,10.64
2023-02-22T09:34:52.388Z,10.80
2023-02-22T09:35:55.026Z,10.93
2023-02-22T09:36:58.415Z,10.96
2023-02-22T09:38:02.073Z,11.00
2023-02-22T09:39:05.233Z,11.17
2023-02-22T09:40:12.190Z,11.21
2023-02-22T09:41:34.619Z,11.19
2023-02-22T09:42:46.992Z,11.31
2023-02-22T09:44:01.735Z,11.44
2023-02-22T09:45:13.002Z,11.35
2023-02-22T09:46:26.836Z,11.14
2023-02-22T09:47:56.515Z,11.37
2023-02-22T09:49:16.617Z,11.55
2023-02-22T09:50:26.850Z,11.80
2023-02-22T09:51:39.196Z,11.59
2023-02-22T09:52:54.323Z,11.47
2023-02-22T09:54:01.412Z,11.47
2023-02-22T09:55:36.323Z,11.60
2023-02-22T09:56:39.690Z,11.80
2023-02-22T09:57:44.245Z,11.94
2023-02-22T09:58:55.523Z,12.28
2023-02-22T10:00:13.423Z,12.64
2023-02-22T10:01:39.821Z,13.36
2023-02-22T10:03:10.548Z,13.59
2023-02-22T10:04:41.519Z,13.62
2023-02-22T10:05:54.451Z,13.80
2023-02-22T10:07:26.148Z,14.08
2023-02-22T10:08:35.855Z,14.27
2023-02-22T10:09:42.850Z,14.07
2023-02-22T10:10:52.661Z,14.31
2023-02-22T10:12:27.573Z,14.32
2023-02-22T10:13:48.815Z,14.19
2023-02-22T10:15:25.208Z,14.32
2023-02-22T10:17:06.578Z,14.38
2023-02-22T10:18:27.343Z,15.02
2023-02-22T10:20:06.949Z,15.58
2023-02-22T10:21:28.078Z,16.16
2023-02-22T10:22:37.548Z,16.69
2023-02-22T10:23:55.071Z,17.41
2023-02-22T10:25:04.959Z,16.87
2023-02-22T10:26:20.305Z,16.66
2023-02-22T10:27:28.441Z,17.17
2023-02-22T10:28:39.717Z,17.73
2023-02-22T10:29:47.090Z,18.26
2023-02-22T10:30:59.307Z,18.40
2023-02-22T10:32:05.493Z,19.07
2023-02-22T10:33:15.374Z,19.47
2023-02-22T10:34:26.769Z,20.41
2023-02-22T10:35:38.774Z,20.45
2023-02-22T10:36:46.336Z,20.04
2023-02-22T10:37:54.495Z,20.39
2023-02-22T10:39:12.502Z,20.16
2023-02-22T10:40:23.793Z,19.28
2023-02-22T10:41:38.427Z,19.79
2023-02-22T10:42:41.545Z,20.22
2023-02-22T10:43:44.791Z,20.49
2023-02-22T10:44:48.152Z,20.85
2023-02-22T10:45:58.392Z,21.42
2023-02-22T10:47:04.600Z,21.34
2023-02-22T10:48:12.394Z,20.91
2023-02-22T10:49:23.798Z,21.05
2023-02-22T10:50:31.969Z,20.40
2023-02-22T10:51:35.679Z,21.14
2023-02-22T10:52:38.800Z,21.45
2023-02-22T10:53:41.945Z,21.67
2023-02-22T10:54:48.886Z,21.50
2023-02-22T10:56:21.891Z,21.72
2023-02-22T10:57:37.009Z,21.13
2023-02-22T10:58:46.495Z,20.49
2023-02-22T10:59:49.979Z,21.13
2023-02-22T11:00:53.215Z,20.85
2023-02-22T11:01:56.457Z,21.44
2023-02-22T11:03:02.216Z,21.09
2023-02-22T11:04:18.066Z,20.69
2023-02-22T11:05:37.265Z,20.49
2023-02-22T11:06:43.145Z,20.61
2023-02-22T11:07:46.266Z,20.80
2023-02-22T11:08:52.273Z,20.37
2023-02-22T11:09:57.435Z,19.98
2023-02-22T11:11:21.070Z,19.60
2023-02-22T11:12:34.517Z,20.38
2023-02-22T11:13:41.126Z,20.48
2023-02-22T11:14:44.356Z,20.32
2023-02-22T11:15:47.478Z,20.23
2023-02-22T11:16:53.884Z,19.61
2023-02-22T11:17:59.123Z,20.00
2023-02-22T11:19:07.890Z,19.86
2023-02-22T11:20:34.813Z,19.70
2023-02-22T11:21:37.928Z,20.06
2023-02-22T11:22:42.927Z,20.49
2023-02-22T11:23:46.291Z,20.21
2023-02-22T11:25:01.466Z,19.83
2023-02-22T11:26:22.467Z,19.01
2023-02-22T11:27:33.630Z,19.32
2023-02-22T11:28:37.435Z,19.05
2023-02-22T11:29:40.232Z,18.92
2023-02-22T11:30:47.269Z,18.19
2023-02-22T11:31:50.768Z,17.83
2023-02-22T11:33:17.099Z,17.83
2023-02-22T11:34:34.477Z,17.96
2023-02-22T11:35:39.632Z,17.65
2023-02-22T11:36:43.313Z,17.58
2023-02-22T11:37:45.870Z,17.58
2023-02-22T11:38:58.717Z,17.98
2023-02-22T11:40:19.746Z,17.63
2023-02-22T11:41:28.794Z,17.61
2023-02-22T11:42:31.234Z,17.18
2023-02-22T11:43:34.480Z,17.41
2023-02-22T11:44:37.117Z,17.42
2023-02-22T11:45:44.174Z,17.53
2023-02-22T11:46:50.368Z,17.24
2023-02-22T11:47:56.438Z,17.41
2023-02-22T11:49:04.726Z,16.93
2023-02-22T11:50:17.318Z,17.09
2023-02-22T11:51:38.319Z,16.92
2023-02-22T11:52:46.482Z,16.90
2023-02-22T11:54:22.483Z,16.96
2023-02-22T11:55:42.725Z,16.87
2023-02-22T11:56:50.567Z,16.77
2023-02-22T11:58:04.721Z,16.26
2023-02-22T11:59:34.842Z,16.34
2023-02-22T12:00:43.617Z,16.11
2023-02-22T12:01:52.492Z,15.88
2023-02-22T12:03:17.342Z,15.71
2023-02-22T12:04:25.683Z,15.65
2023-02-22T12:05:44.570Z,15.50
2023-02-22T12:07:42.416Z,14.97
2023-02-22T12:09:06.652Z,15.42
2023-02-22T12:10:35.814Z,15.59
2023-02-22T12:11:59.937Z,15.72
2023-02-22T12:13:36.892Z,15.54
2023-02-22T12:15:03.416Z,15.40
2023-02-22T12:16:15.150Z,15.03
2023-02-22T12:17:43.617Z,15.04
2023-02-22T12:18:50.819Z,14.62
2023-02-22T12:20:18.923Z,15.06
2023-02-22T12:21:24.547Z,15.24
2023-02-22T12:22:34.681Z,15.24
2023-02-22T12:23:37.143Z,15.04
2023-02-22T12:25:10.483Z,15.16
2023-02-22T12:26:16.801Z,15.38
2023-02-22T12:27:27.406Z,15.34
2023-02-22T12:28:47.784Z,15.60
2023-02-22T12:29:57.930Z,15.83
2023-02-22T12:31:15.127Z,15.94
2023-02-22T12:32:44.132Z,16.44
2023-02-22T12:34:01.163Z,16.68
2023-02-22T12:35:13.527Z,16.28
2023-02-22T12:36:20.968Z,16.25
2023-02-22T12:37:44.250Z,16.17
2023-02-22T12:38:55.095Z,16.29
2023-02-22T12:39:57.723Z,16.42
2023-02-22T12:41:10.302Z,16.62
2023-02-22T12:42:25.178Z,16.70
2023-02-22T12:43:35.503Z,16.59
2023-02-22T12:44:42.224Z,16.38
2023-02-22T12:45:53.269Z,16.02
2023-02-22T12:47:00.350Z,15.81
2023-02-22T12:48:40.797Z,15.59
2023-02-22T12:49:52.551Z,15.48
2023-02-22T12:51:18.300Z,15.60
2023-02-22T12:52:37.801Z,15.34
2023-02-22T12:53:44.761Z,15.07
2023-02-22T12:55:06.364Z,15.21
2023-02-22T12:56:50.653Z,15.25
2023-02-22T12:58:09.727Z,15.22
2023-02-22T12:59:25.937Z,15.25
2023-02-22T13:00:54.498Z,15.23
2023-02-22T13:02:04.936Z,15.20
2023-02-22T13:03:34.098Z,15.34
2023-02-22T13:04:37.336Z,15.41
2023-02-22T13:05:41.903Z,15.62
2023-02-22T13:06:57.620Z,15.77
2023-02-22T13:08:17.303Z,16.00
2023-02-22T13:10:07.946Z,15.79
2023-02-22T13:11:17.309Z,15.84
2023-02-22T13:12:52.294Z,15.58
2023-02-22T13:14:23.436Z,15.48
2023-02-22T13:15:34.836Z,15.30
2023-02-22T13:16:53.196Z,15.42
2023-02-22T13:18:25.897Z,15.47
2023-02-22T13:19:49.601Z,15.54
2023-02-22T13:21:01.257Z,15.72
2023-02-22T13:22:14.807Z,16.04
2023-02-22T13:23:54.167Z,15.82
2023-02-22T13:25:18.590Z,15.92
2023-02-22T13:26:47.812Z,15.54
2023-02-22T13:28:10.013Z,15.96
2023-02-22T13:29:19.803Z,15.95
2023-02-22T13:30:50.457Z,15.84
2023-02-22T13:32:13.304Z,15.89
2023-02-22T13:33:40.391Z,15.96
2023-02-22T13:35:01.099Z,15.51
2023-02-22T13:36:30.668Z,15.56
2023-02-22T13:37:54.434Z,15.39
2023-02-22T13:39:18.854Z,15.64
2023-02-22T13:40:36.624Z,15.60
2023-02-22T13:42:06.314Z,15.55
2023-02-22T13:44:02.000Z,15.54
2023-02-22T13:45:35.286Z,15.49
2023-02-22T13:47:04.435Z,15.56
2023-02-22T13:48:22.304Z,15.50
2023-02-22T13:49:30.121Z,15.12
2023-02-22T13:51:09.448Z,15.01
2023-02-22T13:52:20.497Z,14.89
2023-02-22T13:53:30.723Z,14.87
2023-02-22T13:54:40.773Z,14.91
2023-02-22T13:55:52.199Z,14.73
2023-02-22T13:56:56.888Z,14.84
2023-02-22T13:58:05.902Z,15.02
2023-02-22T13:59:28.448Z,14.94
2023-02-22T14:00:47.051Z,15.04
2023-02-22T14:01:53.082Z,14.95
2023-02-22T14:03:08.311Z,15.09
2023-02-22T14:04:27.609Z,15.27
2023-02-22T14:05:45.093Z,14.95
2023-02-22T14:06:47.770Z,14.96
2023-02-22T14:07:50.429Z,14.85
2023-02-22T14:08:53.170Z,14.87
2023-02-22T14:09:57.736Z,14.67
2023-02-22T14:11:27.736Z,14.71
2023-02-22T14:12:30.263Z,14.69
2023-02-22T14:14:10.943Z,14.77
2023-02-22T14:15:28.569Z,14.66
2023-02-22T14:16:33.930Z,14.83
2023-02-22T14:17:46.934Z,14.72
2023-02-22T14:19:01.341Z,14.68
2023-02-22T14:20:32.545Z,14.56
2023-02-22T14:21:35.781Z,14.66
2023-02-22T14:22:38.432Z,14.67
2023-02-22T14:23:49.818Z,14.60
2023-02-22T14:24:52.351Z,14.62
2023-02-22T14:25:56.070Z,14.71
2023-02-22T14:27:03.522Z,14.60
2023-02-22T14:28:09.027Z,14.54
2023-02-22T14:29:18.046Z,14.48
2023-02-22T14:30:38.609Z,14.46
2023-02-22T14:31:41.157Z,14.50
2023-02-22T14:32:43.977Z,14.39
2023-02-22T14:33:59.213Z,14.55
2023-02-22T14:35:25.481Z,14.55
2023-02-22T14:36:36.164Z,14.52
2023-02-22T14:37:43.600Z,14.43
2023-02-22T14:38:47.702Z,14.36
2023-02-22T14:39:54.416Z,14.20
2023-02-22T14:41:00.888Z,14.17
2023-02-22T14:42:07.404Z,14.13
2023-02-22T14:43:19.997Z,14.13
2023-02-22T14:44:28.253Z,14.17
2023-02-22T14:45:36.942Z,14.15
2023-02-22T14:46:43.154Z,13.91
2023-02-22T14:48:21.180Z,13.99
2023-02-22T14:49:28.862Z,13.83
2023-02-22T14:50:45.439Z,13.86
2023-02-22T14:52:05.345Z,13.82
2023-02-22T14:53:34.989Z,13.77
2023-02-22T14:54:59.114Z,13.67
2023-02-22T14:56:09.095Z,13.71
2023-02-22T14:57:54.083Z,13.62
2023-02-22T14:59:09.797Z,13.58
2023-02-22T15:00:20.614Z,13.64
2023-02-22T15:01:44.339Z,13.66
2023-02-22T15:02:57.606Z,13.69
2023-02-22T15:04:28.399Z,13.71